This is the latest recevied weather packets stored in our database for station/object K2ATL. If no packets are shown the sender has not sent any weather packets the latest 10 day(s).
| Time | Temp. | Humidity | Pressure | Rain* | Wind** | Luminosity | Snow |
|---|---|---|---|---|---|---|---|
| 1777916382 | 18.89° C | 48% | 1101.5 hPa | 0 mm | - | 863 W/m² | - |
| 1777916077 | 18.89° C | 46% | 1101.7 hPa | 0 mm | - | 966 W/m² | - |
| 1777915776 | 19.44° C | 45% | 1101.6 hPa | 0 mm | - | 963 W/m² | - |
| 1777915471 | 17.78° C | 47% | 1101.8 hPa | 0 mm | - | 941 W/m² | - |
| 1777915168 | 20° C | 44% | 1101.9 hPa | 0 mm | - | 960 W/m² | - |
| 1777914865 | 18.89° C | 47% | 1101.8 hPa | 0 mm | - | 940 W/m² | - |
| 1777914562 | 20° C | 45% | 1102 hPa | 0 mm | - | 908 W/m² | - |
| 1777914258 | 18.89° C | 47% | 1101.8 hPa | 0 mm | - | 262 W/m² | - |
| 1777913955 | 20.56° C | 46% | 1101.9 hPa | 0 mm | - | 198 W/m² | - |
| 1777913652 | 20° C | 46% | 1102 hPa | 0 mm | - | 665 W/m² | - |
| 1777913349 | 20° C | 44% | 1101.9 hPa | 0 mm | - | 856 W/m² | - |
| 1777913045 | 18.89° C | 48% | 1102.2 hPa | 0 mm | - | 933 W/m² | - |
| 1777912741 | 18.89° C | 46% | 1102.1 hPa | 0 mm | - | 908 W/m² | - |
| 1777912437 | 18.33° C | 47% | 1102.2 hPa | 0 mm | - | 930 W/m² | - |
| 1777912134 | 16.67° C | 51% | 1102.5 hPa | 0 mm | - | 813 W/m² | - |
| 1777911829 | 17.78° C | 49% | 1102.4 hPa | 0 mm | - | 741 W/m² | - |
| 1777911526 | 16.67° C | 53% | 1102.3 hPa | 0 mm | - | 863 W/m² | - |
| 1777911224 | 17.78° C | 47% | 1102.4 hPa | 0 mm | - | 882 W/m² | - |
| 1777910920 | 17.22° C | 48% | 1102.3 hPa | 0 mm | - | 850 W/m² | - |
| 1777910617 | 17.78° C | 47% | 1102.5 hPa | 0 mm | - | 845 W/m² | - |
| 1777910314 | 17.22° C | 49% | 1102.4 hPa | 0 mm | - | 849 W/m² | - |
| 1777910012 | 16.67° C | 50% | 1102.6 hPa | 0 mm | - | 854 W/m² | - |
| 1777909708 | 17.22° C | 50% | 1102.7 hPa | 0 mm | - | 843 W/m² | - |
| 1777909405 | 16.11° C | 49% | 1103 hPa | 0 mm | - | 817 W/m² | - |
| 1777909103 | 16.67° C | 48% | 1103 hPa | 0 mm | - | 832 W/m² | - |
* Rain latest hour (hover to see other rain measurements)
** Current wind speed in m/s (hover to see current wind gust speed)